KFMH/FMH METAR and TAF weather

Enter ICAO airport designator
Station Type Date Time Source
KFMH METAR 2019/02/17 08:15 UTC NOAA

KFMH 170815Z AUTO 33006KT 10SM CLR M04/M10 A3002 RMK AO2


Station Type Date Time Source
KFMH Decoded METAR 2019/02/17 08:15 UTC NOAA

Otis Air National Guard Base, MA, United States (KFMH) 41-39N 070-31W
Feb 17, 2019 - 03:15 AM EST / 2019.02.17 0815 UTC
Wind: from the NNW (330 degrees) at 7 MPH (6 KT):0
Visibility: 10 mile(s):0
Sky conditions: clear
Temperature: 24 F (-4 C)
Windchill: 15 F (-9 C):1
Dew Point: 14 F (-10 C)
Relative Humidity: 62%
Pressure (altimeter): 30.02 in. Hg (1016 hPa)
ob: KFMH 170815Z AUTO 33006KT 10SM CLR M04/M10 A3002 RMK AO2
cycle: 8

Station Type Date Time Source
KFMH TAF 2019/02/17 06:24 UTC NOAA

TAF KFMH 170522Z 1706/1806 35007KT P6SM SKC
FM171700 04005KT P6SM FEW250
FM172000 12005KT P6SM BKN250
FM180400 16003KT P6SM OVC070


Example: see airport list